RYR9884 EBCI-EPLL
Flight info
| Callsign | RYR9884 |
|---|---|
| Flight time | 1h 33m |
| Altitude | 39000 |
| Route | LNO M170 KENUM N853 ONUNE DCT TOLTA DCT ABGUS Z92 MAG L986 KOSIX DCT GOVEN DCT INDIG L980 UTOLU |
| Aircraft | B38M/M-SDE1FGHILORVWXY/HB1 |
Departure
| Time | 2026-04-21 18:23 |
|---|---|
| Airport | Brussels South Charleroi Airport (EBCI) |
Arrival
| Time | 2026-04-21 19:57 |
|---|---|
| Airport | Łódź Władysław Reymont Airport (EPLL) |
| Time | Latitude | Longitude | Altitude | Speed | Heading |
|---|---|---|---|---|---|
| 2026-04-21 17:53 | 50.46789 | 4.46819 | 574 ft | 0 kts | 335° |
| 2026-04-21 18:13 | 50.46780 | 4.46825 | 576 ft | 4 kts | 332° |
| 2026-04-21 18:13 | 50.46759 | 4.46849 | 573 ft | 4 kts | 310° |
| 2026-04-21 18:13 | 50.46749 | 4.46883 | 572 ft | 4 kts | 266° |
| 2026-04-21 18:13 | 50.46751 | 4.46899 | 572 ft | 1 kts | 245° |
| 2026-04-21 18:18 | 50.46749 | 4.46893 | 572 ft | 2 kts | 245° |
| 2026-04-21 18:18 | 50.46732 | 4.46834 | 574 ft | 10 kts | 245° |
| 2026-04-21 18:18 | 50.46665 | 4.46786 | 574 ft | 13 kts | 161° |
| 2026-04-21 18:18 | 50.46583 | 4.46737 | 577 ft | 18 kts | 248° |
| 2026-04-21 18:19 | 50.46522 | 4.46513 | 575 ft | 27 kts | 244° |
| 2026-04-21 18:19 | 50.46442 | 4.46236 | 575 ft | 26 kts | 245° |
| 2026-04-21 18:19 | 50.46366 | 4.45989 | 589 ft | 23 kts | 244° |
| 2026-04-21 18:19 | 50.46307 | 4.45780 | 611 ft | 20 kts | 245° |
| 2026-04-21 18:20 | 50.46254 | 4.45596 | 611 ft | 18 kts | 246° |
| 2026-04-21 18:20 | 50.46196 | 4.45390 | 621 ft | 24 kts | 245° |
| 2026-04-21 18:20 | 50.46122 | 4.45129 | 616 ft | 27 kts | 246° |
| 2026-04-21 18:20 | 50.46043 | 4.44861 | 612 ft | 25 kts | 245° |
| 2026-04-21 18:21 | 50.45965 | 4.44602 | 622 ft | 27 kts | 244° |
| 2026-04-21 18:21 | 50.45867 | 4.44341 | 622 ft | 27 kts | 232° |
| 2026-04-21 18:21 | 50.45758 | 4.44123 | 609 ft | 25 kts | 232° |
| 2026-04-21 18:21 | 50.45651 | 4.43995 | 604 ft | 15 kts | 159° |
| 2026-04-21 18:22 | 50.45626 | 4.44032 | 609 ft | 1 kts | 100° |
| 2026-04-21 18:22 | 50.45629 | 4.44054 | 611 ft | 3 kts | 74° |
| 2026-04-21 18:22 | 50.45633 | 4.44071 | 615 ft | 1 kts | 65° |
| 2026-04-21 18:22 | 50.45637 | 4.44084 | 611 ft | 2 kts | 64° |
| 2026-04-21 18:23 | 50.45669 | 4.44195 | 608 ft | 36 kts | 66° |
| 2026-04-21 18:23 | 50.45886 | 4.44942 | 616 ft | 113 kts | 66° |
| 2026-04-21 18:23 | 50.46307 | 4.46367 | 736 ft | 166 kts | 64° |
| 2026-04-21 18:23 | 50.46860 | 4.48091 | 1491 ft | 185 kts | 62° |
| 2026-04-21 18:24 | 50.47589 | 4.49821 | 2433 ft | 192 kts | 50° |
| 2026-04-21 18:24 | 50.48444 | 4.51340 | 3441 ft | 187 kts | 50° |
| 2026-04-21 18:24 | 50.49339 | 4.52859 | 4267 ft | 192 kts | 49° |
| 2026-04-21 18:24 | 50.50276 | 4.54503 | 4824 ft | 213 kts | 51° |
| 2026-04-21 18:25 | 50.50944 | 4.55685 | 5097 ft | 225 kts | 50° |
| 2026-04-21 18:25 | 50.52032 | 4.57589 | 5598 ft | 242 kts | 50° |
| 2026-04-21 18:25 | 50.53113 | 4.59673 | 6130 ft | 250 kts | 54° |
| 2026-04-21 18:25 | 50.54544 | 4.62629 | 6854 ft | 257 kts | 54° |
| 2026-04-21 18:26 | 50.55271 | 4.64116 | 7192 ft | 259 kts | 54° |
| 2026-04-21 18:26 | 50.56390 | 4.66397 | 7720 ft | 261 kts | 54° |
| 2026-04-21 18:26 | 50.57492 | 4.68633 | 8258 ft | 263 kts | 54° |
| 2026-04-21 18:26 | 50.58546 | 4.70985 | 8791 ft | 263 kts | 64° |
| 2026-04-21 18:27 | 50.59027 | 4.73738 | 9340 ft | 264 kts | 86° |
| 2026-04-21 18:27 | 50.59016 | 4.76647 | 9908 ft | 267 kts | 90° |
| 2026-04-21 18:27 | 50.58998 | 4.79577 | 10444 ft | 269 kts | 89° |
| 2026-04-21 18:27 | 50.58988 | 4.82615 | 11009 ft | 286 kts | 89° |
| 2026-04-21 18:28 | 50.58985 | 4.85876 | 11623 ft | 301 kts | 89° |
| 2026-04-21 18:28 | 50.58983 | 4.89222 | 12385 ft | 308 kts | 89° |
| 2026-04-21 18:28 | 50.58977 | 4.92566 | 13330 ft | 311 kts | 89° |
| 2026-04-21 18:28 | 50.58972 | 4.96002 | 14126 ft | 317 kts | 89° |
| 2026-04-21 18:29 | 50.58965 | 4.99495 | 14897 ft | 321 kts | 89° |
| 2026-04-21 18:29 | 50.58957 | 5.03024 | 15642 ft | 325 kts | 89° |
| 2026-04-21 18:29 | 50.58947 | 5.06604 | 16380 ft | 329 kts | 89° |
| 2026-04-21 18:29 | 50.58937 | 5.10216 | 17101 ft | 333 kts | 89° |
| 2026-04-21 18:30 | 50.58924 | 5.13878 | 17818 ft | 336 kts | 89° |
| 2026-04-21 18:30 | 50.58911 | 5.17580 | 18528 ft | 340 kts | 88° |
| 2026-04-21 18:30 | 50.58896 | 5.21323 | 19122 ft | 344 kts | 88° |
| 2026-04-21 18:30 | 50.58880 | 5.25099 | 19696 ft | 347 kts | 88° |
| 2026-04-21 18:31 | 50.58862 | 5.28918 | 20256 ft | 351 kts | 88° |
| 2026-04-21 18:31 | 50.58843 | 5.32786 | 20819 ft | 355 kts | 88° |
| 2026-04-21 18:31 | 50.58823 | 5.36682 | 21370 ft | 358 kts | 88° |
| 2026-04-21 18:31 | 50.58801 | 5.40619 | 21929 ft | 362 kts | 88° |
| 2026-04-21 18:32 | 50.58776 | 5.44600 | 22487 ft | 365 kts | 88° |
| 2026-04-21 18:32 | 50.58751 | 5.48608 | 23029 ft | 369 kts | 88° |
| 2026-04-21 18:32 | 50.58724 | 5.52671 | 23590 ft | 373 kts | 88° |
| 2026-04-21 18:32 | 50.58695 | 5.56763 | 24079 ft | 376 kts | 88° |
| 2026-04-21 18:33 | 50.58665 | 5.60894 | 24538 ft | 379 kts | 88° |
| 2026-04-21 18:33 | 50.58632 | 5.65064 | 25005 ft | 382 kts | 88° |
| 2026-04-21 18:33 | 50.58637 | 5.69259 | 25450 ft | 384 kts | 83° |
| 2026-04-21 18:33 | 50.59264 | 5.73319 | 25903 ft | 383 kts | 66° |
| 2026-04-21 18:34 | 50.60255 | 5.77235 | 26296 ft | 387 kts | 67° |
| 2026-04-21 18:34 | 50.61249 | 5.81185 | 26749 ft | 390 kts | 66° |
| 2026-04-21 18:34 | 50.62265 | 5.85163 | 27190 ft | 393 kts | 66° |
| 2026-04-21 18:34 | 50.63294 | 5.89166 | 27608 ft | 396 kts | 66° |
| 2026-04-21 18:35 | 50.63982 | 5.91833 | 27896 ft | 397 kts | 66° |
| 2026-04-21 18:35 | 50.65379 | 5.97257 | 28455 ft | 401 kts | 66° |
| 2026-04-21 18:35 | 50.66432 | 6.01347 | 28866 ft | 404 kts | 66° |
| 2026-04-21 18:35 | 50.67490 | 6.05468 | 29264 ft | 407 kts | 66° |
| 2026-04-21 18:36 | 50.68553 | 6.09614 | 29652 ft | 410 kts | 66° |
| 2026-04-21 18:36 | 50.69627 | 6.13793 | 30029 ft | 413 kts | 66° |
| 2026-04-21 18:36 | 50.70716 | 6.18004 | 30380 ft | 415 kts | 66° |
| 2026-04-21 18:36 | 50.71881 | 6.22188 | 30692 ft | 416 kts | 58° |
| 2026-04-21 18:37 | 50.73650 | 6.25772 | 31002 ft | 415 kts | 43° |
| 2026-04-21 18:37 | 50.75758 | 6.28907 | 31262 ft | 419 kts | 42° |
| 2026-04-21 18:37 | 50.77855 | 6.32030 | 31557 ft | 421 kts | 42° |
| 2026-04-21 18:37 | 50.80004 | 6.35198 | 31864 ft | 423 kts | 42° |
| 2026-04-21 18:38 | 50.82171 | 6.38372 | 32146 ft | 426 kts | 41° |
| 2026-04-21 18:38 | 50.84354 | 6.41565 | 32440 ft | 428 kts | 41° |
| 2026-04-21 18:38 | 50.86549 | 6.44776 | 32734 ft | 431 kts | 41° |
| 2026-04-21 18:38 | 50.88755 | 6.48007 | 33019 ft | 433 kts | 41° |
| 2026-04-21 18:39 | 50.90971 | 6.51255 | 33296 ft | 435 kts | 41° |
| 2026-04-21 18:39 | 50.93195 | 6.54521 | 33569 ft | 438 kts | 41° |
| 2026-04-21 18:39 | 50.95434 | 6.57813 | 33867 ft | 439 kts | 41° |
| 2026-04-21 18:39 | 50.97668 | 6.61102 | 34259 ft | 439 kts | 41° |
| 2026-04-21 18:40 | 50.99907 | 6.64402 | 34570 ft | 439 kts | 41° |
| 2026-04-21 18:40 | 51.02128 | 6.67735 | 34844 ft | 440 kts | 45° |
| 2026-04-21 18:40 | 51.03437 | 6.70283 | 35038 ft | 441 kts | 52° |
| 2026-04-21 18:40 | 51.05868 | 6.75442 | 35429 ft | 441 kts | 51° |
| 2026-04-21 18:41 | 51.07724 | 6.79336 | 35690 ft | 442 kts | 51° |
| 2026-04-21 18:41 | 51.09575 | 6.83234 | 35990 ft | 442 kts | 51° |
| 2026-04-21 18:41 | 51.11424 | 6.87144 | 36276 ft | 442 kts | 51° |
| 2026-04-21 18:41 | 51.13272 | 6.91059 | 36560 ft | 442 kts | 51° |
| 2026-04-21 18:42 | 51.15118 | 6.94975 | 36837 ft | 442 kts | 51° |
| 2026-04-21 18:42 | 51.16963 | 6.98893 | 37096 ft | 443 kts | 51° |
| 2026-04-21 18:42 | 51.18812 | 7.02827 | 37356 ft | 443 kts | 51° |
| 2026-04-21 18:42 | 51.20654 | 7.06752 | 37625 ft | 443 kts | 51° |
| 2026-04-21 18:43 | 51.22498 | 7.10687 | 37884 ft | 443 kts | 51° |
| 2026-04-21 18:43 | 51.24340 | 7.14624 | 38126 ft | 443 kts | 51° |
| 2026-04-21 18:43 | 51.26182 | 7.18568 | 38382 ft | 443 kts | 51° |
| 2026-04-21 18:43 | 51.28022 | 7.22511 | 38621 ft | 443 kts | 51° |
| 2026-04-21 18:44 | 51.29860 | 7.26459 | 38845 ft | 443 kts | 51° |
| 2026-04-21 18:44 | 51.31699 | 7.30413 | 39038 ft | 443 kts | 51° |
| 2026-04-21 18:44 | 51.33537 | 7.34371 | 39193 ft | 443 kts | 51° |
| 2026-04-21 18:45 | 51.36846 | 7.42661 | 39264 ft | 445 kts | 69° |
| 2026-04-21 18:45 | 51.38560 | 7.52228 | 39274 ft | 449 kts | 72° |
| 2026-04-21 18:46 | 51.40160 | 7.61885 | 39271 ft | 449 kts | 73° |
| 2026-04-21 18:46 | 51.41710 | 7.71574 | 39269 ft | 449 kts | 73° |
| 2026-04-21 18:47 | 51.43247 | 7.81273 | 39271 ft | 449 kts | 73° |
| 2026-04-21 18:47 | 51.44763 | 7.90903 | 39277 ft | 449 kts | 73° |
| 2026-04-21 18:48 | 51.46281 | 8.00604 | 39277 ft | 449 kts | 73° |
| 2026-04-21 18:48 | 51.47792 | 8.10313 | 39279 ft | 448 kts | 74° |
| 2026-04-21 18:49 | 51.49294 | 8.20020 | 39279 ft | 448 kts | 74° |
| 2026-04-21 18:49 | 51.50544 | 8.28151 | 39276 ft | 448 kts | 74° |
| 2026-04-21 18:50 | 51.52270 | 8.39438 | 39273 ft | 448 kts | 74° |
| 2026-04-21 18:50 | 51.53747 | 8.49162 | 39271 ft | 448 kts | 74° |
| 2026-04-21 18:51 | 51.55215 | 8.58884 | 39267 ft | 448 kts | 74° |
| 2026-04-21 18:51 | 51.56673 | 8.68605 | 39266 ft | 448 kts | 74° |
| 2026-04-21 18:52 | 51.58126 | 8.78345 | 39267 ft | 448 kts | 75° |
| 2026-04-21 18:52 | 51.59569 | 8.88084 | 39269 ft | 448 kts | 75° |
| 2026-04-21 18:53 | 51.61005 | 8.97832 | 39278 ft | 448 kts | 75° |
| 2026-04-21 18:53 | 51.62431 | 9.07579 | 39282 ft | 448 kts | 75° |
| 2026-04-21 18:54 | 51.63790 | 9.17360 | 39269 ft | 448 kts | 80° |
| 2026-04-21 18:54 | 51.64704 | 9.27292 | 39274 ft | 448 kts | 79° |
| 2026-04-21 18:55 | 51.65507 | 9.35528 | 39270 ft | 448 kts | 79° |
| 2026-04-21 18:55 | 51.66640 | 9.47122 | 39281 ft | 448 kts | 79° |
| 2026-04-21 18:56 | 51.67601 | 9.57037 | 39282 ft | 448 kts | 79° |
| 2026-04-21 18:56 | 51.68553 | 9.66950 | 39287 ft | 448 kts | 79° |
| 2026-04-21 18:57 | 51.69497 | 9.76864 | 39290 ft | 447 kts | 79° |
| 2026-04-21 18:57 | 51.70432 | 9.86781 | 39293 ft | 447 kts | 79° |
| 2026-04-21 18:58 | 51.71357 | 9.96682 | 39297 ft | 447 kts | 79° |
| 2026-04-21 18:58 | 51.72273 | 10.06585 | 39292 ft | 446 kts | 79° |
| 2026-04-21 18:59 | 51.73181 | 10.16493 | 39295 ft | 446 kts | 79° |
| 2026-04-21 18:59 | 51.74079 | 10.26385 | 39304 ft | 446 kts | 80° |
| 2026-04-21 19:00 | 51.74969 | 10.36285 | 39301 ft | 446 kts | 80° |
| 2026-04-21 19:00 | 51.75851 | 10.46189 | 39306 ft | 446 kts | 80° |
| 2026-04-21 19:01 | 51.76724 | 10.56090 | 39302 ft | 446 kts | 80° |
| 2026-04-21 19:01 | 51.77589 | 10.66011 | 39297 ft | 446 kts | 80° |
| 2026-04-21 19:02 | 51.78447 | 10.75932 | 39303 ft | 446 kts | 80° |
| 2026-04-21 19:02 | 51.79291 | 10.85805 | 39298 ft | 447 kts | 80° |
| 2026-04-21 19:03 | 51.80133 | 10.95746 | 39301 ft | 447 kts | 80° |
| 2026-04-21 19:03 | 51.80966 | 11.05695 | 39296 ft | 447 kts | 80° |
| 2026-04-21 19:04 | 51.81791 | 11.15648 | 39293 ft | 447 kts | 81° |
| 2026-04-21 19:04 | 51.82613 | 11.25667 | 39294 ft | 446 kts | 81° |
| 2026-04-21 19:05 | 51.83420 | 11.35614 | 39296 ft | 446 kts | 81° |
| 2026-04-21 19:05 | 51.84218 | 11.45553 | 39295 ft | 446 kts | 81° |
| 2026-04-21 19:06 | 51.85009 | 11.55504 | 39295 ft | 446 kts | 81° |
| 2026-04-21 19:06 | 51.85785 | 11.65388 | 39293 ft | 446 kts | 81° |
| 2026-04-21 19:07 | 51.86563 | 11.75401 | 39293 ft | 446 kts | 81° |
| 2026-04-21 19:07 | 51.87322 | 11.85288 | 39293 ft | 446 kts | 81° |
| 2026-04-21 19:08 | 51.88078 | 11.95241 | 39292 ft | 445 kts | 81° |
| 2026-04-21 19:08 | 51.88824 | 12.05188 | 39291 ft | 445 kts | 81° |
| 2026-04-21 19:09 | 51.89563 | 12.15143 | 39291 ft | 445 kts | 81° |
| 2026-04-21 19:09 | 51.90174 | 12.23474 | 39291 ft | 445 kts | 82° |
| 2026-04-21 19:10 | 51.90897 | 12.33421 | 39291 ft | 445 kts | 82° |
| 2026-04-21 19:10 | 51.91609 | 12.43355 | 39286 ft | 444 kts | 82° |
| 2026-04-21 19:11 | 51.92314 | 12.53301 | 39286 ft | 444 kts | 82° |
| 2026-04-21 19:11 | 51.93009 | 12.63227 | 39281 ft | 443 kts | 82° |
| 2026-04-21 19:12 | 51.93696 | 12.73153 | 39278 ft | 444 kts | 82° |
| 2026-04-21 19:12 | 51.94370 | 12.83031 | 39271 ft | 443 kts | 82° |
| 2026-04-21 19:13 | 51.95040 | 12.92961 | 39268 ft | 443 kts | 82° |
| 2026-04-21 19:13 | 51.95701 | 13.02899 | 39269 ft | 443 kts | 82° |
| 2026-04-21 19:14 | 51.96354 | 13.12838 | 39267 ft | 443 kts | 82° |
| 2026-04-21 19:14 | 51.96999 | 13.22784 | 39269 ft | 443 kts | 82° |
| 2026-04-21 19:15 | 51.97635 | 13.32724 | 39265 ft | 443 kts | 83° |
| 2026-04-21 19:15 | 51.98263 | 13.42668 | 39268 ft | 443 kts | 83° |
| 2026-04-21 19:16 | 51.98882 | 13.52610 | 39271 ft | 443 kts | 83° |
| 2026-04-21 19:16 | 51.99493 | 13.62552 | 39269 ft | 443 kts | 83° |
| 2026-04-21 19:17 | 52.00392 | 13.77466 | 39267 ft | 442 kts | 83° |
| 2026-04-21 19:17 | 52.00982 | 13.87404 | 39269 ft | 443 kts | 83° |
| 2026-04-21 19:18 | 52.01563 | 13.97358 | 39261 ft | 443 kts | 83° |
| 2026-04-21 19:18 | 52.01850 | 14.02336 | 39118 ft | 443 kts | 83° |
| 2026-04-21 19:18 | 52.02135 | 14.07308 | 38942 ft | 442 kts | 83° |
| 2026-04-21 19:19 | 52.02418 | 14.12272 | 38740 ft | 441 kts | 83° |
| 2026-04-21 19:19 | 52.02698 | 14.17237 | 38526 ft | 441 kts | 83° |
| 2026-04-21 19:19 | 52.02976 | 14.22184 | 38320 ft | 440 kts | 83° |
| 2026-04-21 19:19 | 52.03251 | 14.27125 | 38113 ft | 439 kts | 83° |
| 2026-04-21 19:20 | 52.03523 | 14.32056 | 37905 ft | 438 kts | 83° |
| 2026-04-21 19:20 | 52.03792 | 14.36980 | 37703 ft | 437 kts | 83° |
| 2026-04-21 19:20 | 52.04060 | 14.41889 | 37505 ft | 437 kts | 83° |
| 2026-04-21 19:20 | 52.04324 | 14.46798 | 37292 ft | 436 kts | 83° |
| 2026-04-21 19:21 | 52.04587 | 14.51705 | 37093 ft | 435 kts | 83° |
| 2026-04-21 19:21 | 52.04847 | 14.56598 | 36873 ft | 435 kts | 83° |
| 2026-04-21 19:21 | 52.05104 | 14.61483 | 36653 ft | 434 kts | 83° |
| 2026-04-21 19:21 | 52.05359 | 14.66360 | 36418 ft | 433 kts | 83° |
| 2026-04-21 19:22 | 52.05611 | 14.71230 | 36178 ft | 432 kts | 83° |
| 2026-04-21 19:22 | 52.05792 | 14.76091 | 35935 ft | 432 kts | 89° |
| 2026-04-21 19:22 | 52.05703 | 14.80971 | 35708 ft | 432 kts | 89° |
| 2026-04-21 19:22 | 52.05649 | 14.85847 | 35483 ft | 431 kts | 89° |
| 2026-04-21 19:23 | 52.05608 | 14.90709 | 35271 ft | 430 kts | 88° |
| 2026-04-21 19:23 | 52.05573 | 14.95542 | 35251 ft | 424 kts | 88° |
| 2026-04-21 19:23 | 52.05506 | 15.04998 | 35252 ft | 415 kts | 88° |
| 2026-04-21 19:24 | 52.05434 | 15.14369 | 35249 ft | 415 kts | 88° |
| 2026-04-21 19:24 | 52.05355 | 15.23744 | 35245 ft | 415 kts | 88° |
| 2026-04-21 19:25 | 52.05268 | 15.33128 | 35244 ft | 415 kts | 88° |
| 2026-04-21 19:25 | 52.05173 | 15.42505 | 35240 ft | 415 kts | 88° |
| 2026-04-21 19:26 | 52.05071 | 15.51889 | 35242 ft | 416 kts | 89° |
| 2026-04-21 19:26 | 52.04962 | 15.61279 | 35240 ft | 416 kts | 89° |
| 2026-04-21 19:27 | 52.04846 | 15.70612 | 35241 ft | 416 kts | 89° |
| 2026-04-21 19:27 | 52.04722 | 15.80002 | 35241 ft | 416 kts | 89° |
| 2026-04-21 19:28 | 52.04590 | 15.89405 | 35240 ft | 416 kts | 89° |
| 2026-04-21 19:28 | 52.04450 | 15.98815 | 35240 ft | 416 kts | 89° |
| 2026-04-21 19:29 | 52.04303 | 16.08217 | 35239 ft | 417 kts | 89° |
| 2026-04-21 19:29 | 52.04148 | 16.17627 | 35240 ft | 417 kts | 89° |
| 2026-04-21 19:30 | 52.03986 | 16.27029 | 35240 ft | 417 kts | 89° |
| 2026-04-21 19:30 | 52.03816 | 16.36453 | 35243 ft | 417 kts | 89° |
| 2026-04-21 19:31 | 52.03639 | 16.45867 | 35240 ft | 417 kts | 89° |
| 2026-04-21 19:31 | 52.03454 | 16.55294 | 35235 ft | 417 kts | 89° |
| 2026-04-21 19:32 | 52.03262 | 16.64704 | 35244 ft | 418 kts | 89° |
| 2026-04-21 19:32 | 52.03062 | 16.74146 | 35246 ft | 418 kts | 89° |
| 2026-04-21 19:33 | 52.02855 | 16.83542 | 35231 ft | 409 kts | 89° |
| 2026-04-21 19:33 | 52.02648 | 16.92629 | 35246 ft | 399 kts | 89° |
| 2026-04-21 19:34 | 52.02436 | 17.01617 | 35234 ft | 398 kts | 89° |
| 2026-04-21 19:34 | 52.02217 | 17.10600 | 35195 ft | 399 kts | 89° |
| 2026-04-21 19:35 | 52.02106 | 17.15079 | 34720 ft | 397 kts | 89° |
| 2026-04-21 19:35 | 52.01877 | 17.24051 | 33464 ft | 398 kts | 89° |
| 2026-04-21 19:35 | 52.01760 | 17.28544 | 32789 ft | 399 kts | 89° |
| 2026-04-21 19:36 | 52.01641 | 17.33044 | 32141 ft | 399 kts | 89° |
| 2026-04-21 19:36 | 52.01521 | 17.37535 | 31511 ft | 398 kts | 89° |
| 2026-04-21 19:36 | 52.01399 | 17.42019 | 30895 ft | 397 kts | 89° |
| 2026-04-21 19:36 | 52.01276 | 17.46483 | 30305 ft | 395 kts | 89° |
| 2026-04-21 19:37 | 52.01151 | 17.50930 | 29599 ft | 393 kts | 89° |
| 2026-04-21 19:37 | 52.01025 | 17.55356 | 28909 ft | 392 kts | 89° |
| 2026-04-21 19:37 | 52.00901 | 17.59701 | 28243 ft | 390 kts | 89° |
| 2026-04-21 19:37 | 52.00773 | 17.64084 | 27586 ft | 388 kts | 89° |
| 2026-04-21 19:38 | 52.00645 | 17.68446 | 26941 ft | 386 kts | 89° |
| 2026-04-21 19:38 | 52.00515 | 17.72843 | 26305 ft | 384 kts | 89° |
| 2026-04-21 19:38 | 52.00430 | 17.75701 | 25894 ft | 383 kts | 89° |
| 2026-04-21 19:38 | 52.00256 | 17.81451 | 25082 ft | 380 kts | 89° |
| 2026-04-21 19:39 | 52.00125 | 17.85733 | 24487 ft | 379 kts | 90° |
| 2026-04-21 19:39 | 51.99994 | 17.89987 | 23906 ft | 377 kts | 90° |
| 2026-04-21 19:39 | 51.99862 | 17.94219 | 23237 ft | 375 kts | 90° |
| 2026-04-21 19:39 | 51.99728 | 17.98441 | 22553 ft | 373 kts | 90° |
| 2026-04-21 19:40 | 51.99367 | 18.02612 | 21894 ft | 375 kts | 99° |
| 2026-04-21 19:40 | 51.98857 | 18.06688 | 21273 ft | 372 kts | 97° |
| 2026-04-21 19:40 | 51.98376 | 18.10795 | 20654 ft | 370 kts | 97° |
| 2026-04-21 19:40 | 51.97908 | 18.14894 | 20041 ft | 368 kts | 97° |
| 2026-04-21 19:41 | 51.97449 | 18.18968 | 19450 ft | 367 kts | 97° |
| 2026-04-21 19:41 | 51.96995 | 18.23027 | 18864 ft | 365 kts | 97° |
| 2026-04-21 19:41 | 51.96542 | 18.27067 | 18252 ft | 363 kts | 97° |
| 2026-04-21 19:41 | 51.96090 | 18.31090 | 17592 ft | 362 kts | 97° |
| 2026-04-21 19:42 | 51.95639 | 18.35100 | 16951 ft | 360 kts | 97° |
| 2026-04-21 19:42 | 51.95189 | 18.39084 | 16320 ft | 359 kts | 97° |
| 2026-04-21 19:42 | 51.94740 | 18.43049 | 15702 ft | 357 kts | 97° |
| 2026-04-21 19:42 | 51.94291 | 18.46998 | 15098 ft | 355 kts | 97° |
| 2026-04-21 19:43 | 51.93843 | 18.50927 | 14504 ft | 354 kts | 97° |
| 2026-04-21 19:43 | 51.93398 | 18.54827 | 13913 ft | 352 kts | 98° |
| 2026-04-21 19:43 | 51.92951 | 18.58718 | 13264 ft | 350 kts | 98° |
| 2026-04-21 19:43 | 51.92506 | 18.62590 | 12622 ft | 348 kts | 98° |
| 2026-04-21 19:44 | 51.92062 | 18.66437 | 11993 ft | 347 kts | 98° |
| 2026-04-21 19:44 | 51.91620 | 18.70261 | 11374 ft | 345 kts | 98° |
| 2026-04-21 19:44 | 51.91178 | 18.74070 | 10765 ft | 343 kts | 98° |
| 2026-04-21 19:44 | 51.90737 | 18.77856 | 10281 ft | 339 kts | 98° |
| 2026-04-21 19:45 | 51.90352 | 18.81155 | 10107 ft | 326 kts | 98° |
| 2026-04-21 19:45 | 51.89929 | 18.84774 | 9363 ft | 329 kts | 98° |
| 2026-04-21 19:45 | 51.89640 | 18.88425 | 8865 ft | 322 kts | 89° |
| 2026-04-21 19:45 | 51.89581 | 18.91990 | 8583 ft | 312 kts | 90° |
| 2026-04-21 19:46 | 51.89498 | 18.95451 | 8293 ft | 303 kts | 90° |
| 2026-04-21 19:46 | 51.89405 | 18.98819 | 7998 ft | 295 kts | 90° |
| 2026-04-21 19:46 | 51.89307 | 19.02099 | 7706 ft | 288 kts | 90° |
| 2026-04-21 19:46 | 51.89206 | 19.05291 | 7414 ft | 281 kts | 90° |
| 2026-04-21 19:47 | 51.89104 | 19.08420 | 7120 ft | 275 kts | 90° |
| 2026-04-21 19:47 | 51.89003 | 19.11483 | 6833 ft | 270 kts | 90° |
| 2026-04-21 19:47 | 51.88902 | 19.14492 | 6539 ft | 265 kts | 91° |
| 2026-04-21 19:47 | 51.88802 | 19.17450 | 6224 ft | 261 kts | 91° |
| 2026-04-21 19:48 | 51.88703 | 19.20355 | 5927 ft | 257 kts | 91° |
| 2026-04-21 19:48 | 51.88605 | 19.23203 | 5674 ft | 251 kts | 90° |
| 2026-04-21 19:48 | 51.88509 | 19.25959 | 5426 ft | 245 kts | 90° |
| 2026-04-21 19:48 | 51.88414 | 19.28686 | 5174 ft | 240 kts | 90° |
| 2026-04-21 19:49 | 51.88319 | 19.31395 | 4925 ft | 236 kts | 90° |
| 2026-04-21 19:49 | 51.88227 | 19.34016 | 4661 ft | 231 kts | 90° |
| 2026-04-21 19:49 | 51.88137 | 19.36555 | 4409 ft | 227 kts | 90° |
| 2026-04-21 19:49 | 51.88051 | 19.39084 | 4162 ft | 223 kts | 90° |
| 2026-04-21 19:50 | 51.87995 | 19.40768 | 3994 ft | 221 kts | 90° |
| 2026-04-21 19:50 | 51.87884 | 19.44032 | 3654 ft | 217 kts | 90° |
| 2026-04-21 19:50 | 51.87801 | 19.46454 | 3402 ft | 215 kts | 90° |
| 2026-04-21 19:50 | 51.87719 | 19.48851 | 3146 ft | 212 kts | 89° |
| 2026-04-21 19:51 | 51.87638 | 19.51196 | 3005 ft | 204 kts | 89° |
| 2026-04-21 19:51 | 51.87559 | 19.53448 | 2982 ft | 199 kts | 89° |
| 2026-04-21 19:51 | 51.87293 | 19.55656 | 3004 ft | 205 kts | 113° |
| 2026-04-21 19:51 | 51.86329 | 19.57369 | 2998 ft | 212 kts | 146° |
| 2026-04-21 19:52 | 51.84957 | 19.58308 | 3016 ft | 216 kts | 157° |
| 2026-04-21 19:52 | 51.84019 | 19.58849 | 3004 ft | 217 kts | 157° |
| 2026-04-21 19:52 | 51.82116 | 19.59936 | 2994 ft | 217 kts | 158° |
| 2026-04-21 19:52 | 51.80694 | 19.60741 | 2999 ft | 217 kts | 158° |
| 2026-04-21 19:53 | 51.79250 | 19.61428 | 2975 ft | 216 kts | 173° |
| 2026-04-21 19:53 | 51.78290 | 19.61272 | 2994 ft | 204 kts | 198° |
| 2026-04-21 19:53 | 51.76892 | 19.59462 | 3026 ft | 194 kts | 234° |
| 2026-04-21 19:53 | 51.76156 | 19.57642 | 2856 ft | 190 kts | 245° |
| 2026-04-21 19:54 | 51.75656 | 19.55782 | 2632 ft | 172 kts | 254° |
| 2026-04-21 19:54 | 51.75284 | 19.54037 | 2410 ft | 160 kts | 255° |
| 2026-04-21 19:54 | 51.74923 | 19.52344 | 2192 ft | 159 kts | 255° |
| 2026-04-21 19:54 | 51.74682 | 19.51231 | 2054 ft | 159 kts | 255° |
| 2026-04-21 19:55 | 51.74317 | 19.49557 | 1832 ft | 158 kts | 255° |
| 2026-04-21 19:55 | 51.73955 | 19.47897 | 1612 ft | 157 kts | 255° |
| 2026-04-21 19:55 | 51.73597 | 19.46254 | 1388 ft | 153 kts | 253° |
| 2026-04-21 19:55 | 51.73248 | 19.44660 | 1171 ft | 149 kts | 252° |
| 2026-04-21 19:56 | 51.72896 | 19.43060 | 997 ft | 150 kts | 252° |
| 2026-04-21 19:56 | 51.72559 | 19.41516 | 744 ft | 141 kts | 252° |
| 2026-04-21 19:56 | 51.72245 | 19.40060 | 624 ft | 130 kts | 251° |
| 2026-04-21 19:56 | 51.72032 | 19.39087 | 618 ft | 57 kts | 250° |
| 2026-04-21 19:57 | 51.71972 | 19.38715 | 619 ft | 22 kts | 264° |
| 2026-04-21 19:57 | 51.71954 | 19.38677 | 621 ft | 3 kts | 165° |
| 2026-04-21 19:57 | 51.71944 | 19.38735 | 616 ft | 8 kts | 76° |
| 2026-04-21 19:57 | 51.71986 | 19.38874 | 616 ft | 19 kts | 68° |
| 2026-04-21 19:58 | 51.72032 | 19.39091 | 619 ft | 21 kts | 70° |
| 2026-04-21 19:58 | 51.72084 | 19.39328 | 621 ft | 24 kts | 70° |
| 2026-04-21 19:58 | 51.72140 | 19.39585 | 625 ft | 25 kts | 71° |
| 2026-04-21 19:58 | 51.72198 | 19.39845 | 627 ft | 23 kts | 70° |
| 2026-04-21 19:59 | 51.72250 | 19.40083 | 620 ft | 22 kts | 70° |
| 2026-04-21 19:59 | 51.72301 | 19.40321 | 620 ft | 24 kts | 71° |
| 2026-04-21 19:59 | 51.72352 | 19.40549 | 616 ft | 14 kts | 60° |
| 2026-04-21 19:59 | 51.72399 | 19.40574 | 616 ft | 7 kts | 343° |
| 2026-04-21 20:00 | 51.72454 | 19.40548 | 623 ft | 10 kts | 344° |
| 2026-04-21 20:00 | 51.72498 | 19.40480 | 616 ft | 10 kts | 271° |
| 2026-04-21 20:00 | 51.72474 | 19.40367 | 632 ft | 12 kts | 248° |
| 2026-04-21 20:00 | 51.72448 | 19.40243 | 617 ft | 8 kts | 257° |
| 2026-04-21 20:01 | 51.72452 | 19.40205 | 615 ft | 1 kts | 303° |
| 2026-04-21 20:01 | 51.72464 | 19.40189 | 623 ft | 4 kts | 324° |
| 2026-04-21 20:01 | 51.72501 | 19.40164 | 628 ft | 7 kts | 341° |
| 2026-04-21 20:01 | 51.72551 | 19.40127 | 623 ft | 6 kts | 337° |
| 2026-04-21 20:02 | 51.72590 | 19.40105 | 622 ft | 3 kts | 340° |
| 2026-04-21 20:02 | 51.72602 | 19.40097 | 618 ft | 1 kts | 340° |
| 2026-04-21 20:02 | 51.72605 | 19.40096 | 619 ft | 0 kts | 340° |